createdAt,value
2022-08-05T00:02:07.992Z,76.48
2022-08-05T00:04:38.395Z,76.74
2022-08-05T00:07:21.767Z,76.46
2022-08-05T00:09:53.534Z,75.99
2022-08-05T00:12:22.048Z,76.45
2022-08-05T00:14:48.481Z,76.85
2022-08-05T00:17:18.650Z,76.86
2022-08-05T00:20:02.057Z,76.92
2022-08-05T00:22:29.719Z,77.13
2022-08-05T00:24:57.496Z,77.25
2022-08-05T00:27:28.383Z,77.23
2022-08-05T00:30:03.529Z,77.54
2022-08-05T00:32:29.938Z,77.17
2022-08-05T00:35:06.203Z,77.12
2022-08-05T00:37:51.322Z,77.28
2022-08-05T00:40:28.168Z,78.09
2022-08-05T00:42:57.968Z,78.31
2022-08-05T00:45:37.861Z,77.71
2022-08-05T00:48:07.912Z,77.63
2022-08-05T00:50:34.318Z,77.44
2022-08-05T00:53:02.131Z,77.47
2022-08-05T00:55:42.281Z,77.52
2022-08-05T00:58:14.519Z,77.73
2022-08-05T01:00:42.067Z,77.73
2022-08-05T01:03:10.530Z,77.62
2022-08-05T01:05:49.292Z,77.47
2022-08-05T01:08:40.188Z,77.44
2022-08-05T01:11:13.764Z,77.50
2022-08-05T01:13:58.967Z,77.31
2022-08-05T01:16:40.902Z,77.35
2022-08-05T01:19:16.039Z,77.42
2022-08-05T01:22:01.515Z,77.51
2022-08-05T01:24:50.642Z,77.60
2022-08-05T01:27:26.510Z,77.74
2022-08-05T01:29:58.172Z,77.38
2022-08-05T01:32:29.314Z,77.27
2022-08-05T01:35:01.279Z,77.00
2022-08-05T01:37:49.103Z,77.09
2022-08-05T01:40:18.147Z,77.14
2022-08-05T01:42:45.888Z,77.49
2022-08-05T01:45:16.488Z,77.18
2022-08-05T01:47:47.842Z,77.02
2022-08-05T01:50:28.620Z,77.42
2022-08-05T01:53:05.339Z,77.76
2022-08-05T01:55:36.477Z,78.36
2022-08-05T01:58:15.083Z,78.90
2022-08-05T02:00:47.040Z,78.91
2022-08-05T02:03:34.183Z,79.60
2022-08-05T02:06:03.566Z,79.43
2022-08-05T02:08:58.639Z,79.03
2022-08-05T02:11:33.671Z,79.11
2022-08-05T02:14:05.235Z,78.75
2022-08-05T02:16:41.775Z,78.58
2022-08-05T02:19:34.381Z,79.08
2022-08-05T02:22:25.513Z,79.37
2022-08-05T02:25:02.184Z,79.24
2022-08-05T02:27:57.670Z,79.31
2022-08-05T02:30:19.570Z,79.10
2022-08-05T02:32:51.048Z,79.37
2022-08-05T02:35:27.681Z,79.73
2022-08-05T02:37:56.759Z,79.46
2022-08-05T02:40:29.766Z,79.60
2022-08-05T02:42:56.966Z,79.43
2022-08-05T02:45:26.597Z,79.52
2022-08-05T02:48:06.670Z,80.91
2022-08-05T02:50:43.790Z,80.22
2022-08-05T02:53:18.746Z,80.38
2022-08-05T02:55:54.984Z,79.37
2022-08-05T02:58:29.998Z,79.43
2022-08-05T03:00:58.677Z,79.79
2022-08-05T03:03:28.150Z,79.85
2022-08-05T03:06:55.042Z,79.45
2022-08-05T03:08:52.235Z,79.36
2022-08-05T03:11:56.453Z,79.70
2022-08-05T03:14:08.666Z,79.49
2022-08-05T03:16:40.024Z,79.73
2022-08-05T03:19:12.867Z,80.27
2022-08-05T03:21:49.611Z,79.81
2022-08-05T03:24:27.529Z,78.84
2022-08-05T03:26:56.703Z,78.72
2022-08-05T03:29:23.930Z,78.51
2022-08-05T03:31:57.173Z,79.23
2022-08-05T03:34:28.831Z,79.17
2022-08-05T03:36:55.353Z,78.53
2022-08-05T03:39:27.029Z,78.32
2022-08-05T03:41:56.317Z,78.40
2022-08-05T03:44:23.408Z,78.22
2022-08-05T03:46:49.908Z,78.27
2022-08-05T03:49:16.724Z,78.16
2022-08-05T03:52:36.559Z,79.11
2022-08-05T03:55:52.078Z,81.79
2022-08-05T03:57:45.887Z,80.08
2022-08-05T04:00:16.395Z,78.73
2022-08-05T04:02:58.092Z,78.08
2022-08-05T04:05:33.629Z,78.07
2022-08-05T04:08:05.637Z,78.11
2022-08-05T04:10:42.837Z,77.75
2022-08-05T04:13:09.365Z,77.02
2022-08-05T04:15:36.826Z,76.77
2022-08-05T04:18:06.777Z,75.97
2022-08-05T04:20:34.812Z,76.33
2022-08-05T04:23:01.338Z,76.39
2022-08-05T04:25:57.425Z,76.34
2022-08-05T04:28:14.620Z,75.65
2022-08-05T04:30:41.497Z,75.74
2022-08-05T04:33:09.586Z,75.69
2022-08-05T04:36:10.634Z,75.33
2022-08-05T04:38:22.842Z,75.19
2022-08-05T04:41:07.311Z,75.50
2022-08-05T04:43:36.279Z,74.66
2022-08-05T04:46:04.468Z,73.72
2022-08-05T04:48:31.816Z,73.61
2022-08-05T04:51:03.674Z,73.06
2022-08-05T04:53:38.878Z,71.78
2022-08-05T04:56:33.364Z,70.85
2022-08-05T04:58:54.211Z,70.29
2022-08-05T05:01:33.688Z,68.07
2022-08-05T05:04:07.560Z,68.70
2022-08-05T05:06:36.068Z,67.14
2022-08-05T05:09:16.837Z,66.56
2022-08-05T05:11:53.123Z,65.93
2022-08-05T05:14:31.741Z,65.65
2022-08-05T05:17:03.320Z,66.28
2022-08-05T05:19:36.765Z,66.22
2022-08-05T05:22:24.411Z,66.02
2022-08-05T05:24:57.842Z,66.75
2022-08-05T05:27:44.415Z,66.69
2022-08-05T05:30:15.465Z,66.41
2022-08-05T05:32:55.904Z,65.97
2022-08-05T05:35:22.918Z,65.99
2022-08-05T05:38:00.140Z,65.98
2022-08-05T05:40:29.586Z,65.62
2022-08-05T05:42:57.059Z,65.31
2022-08-05T05:45:24.750Z,65.22
2022-08-05T05:48:06.094Z,63.84
2022-08-05T05:50:43.835Z,62.08
2022-08-05T05:53:22.111Z,63.77
2022-08-05T05:55:51.744Z,62.49
2022-08-05T05:58:32.105Z,61.68
2022-08-05T06:01:13.011Z,61.28
2022-08-05T06:04:00.700Z,60.95
2022-08-05T06:06:30.848Z,60.62
2022-08-05T06:08:58.094Z,60.81
2022-08-05T06:11:24.625Z,59.64
2022-08-05T06:13:54.118Z,59.76
2022-08-05T06:16:29.496Z,59.08
2022-08-05T06:19:00.064Z,59.26
2022-08-05T06:21:37.183Z,58.63
2022-08-05T06:24:11.279Z,58.06
2022-08-05T06:26:51.006Z,57.59
2022-08-05T06:29:25.389Z,55.61
2022-08-05T06:32:25.013Z,52.99
2022-08-05T06:34:53.634Z,51.01
2022-08-05T06:37:57.342Z,48.52
2022-08-05T06:40:11.072Z,46.67
2022-08-05T06:42:39.701Z,45.66
2022-08-05T06:45:08.370Z,44.86
2022-08-05T06:48:36.777Z,44.75
2022-08-05T06:50:22.581Z,45.16
2022-08-05T06:52:58.625Z,45.46
2022-08-05T06:55:30.481Z,42.81
2022-08-05T06:58:30.085Z,42.84
2022-08-05T07:00:50.075Z,39.97
2022-08-05T07:03:16.721Z,40.71
2022-08-05T07:05:43.395Z,42.45
2022-08-05T07:08:10.849Z,44.94
2022-08-05T07:10:38.003Z,46.94
2022-08-05T07:13:56.823Z,50.07
2022-08-05T07:17:58.539Z,51.18
2022-08-05T07:19:16.069Z,48.38
2022-08-05T07:22:02.603Z,45.18
2022-08-05T07:24:29.898Z,46.19
2022-08-05T07:26:56.964Z,42.65
2022-08-05T07:29:25.456Z,41.94
2022-08-05T07:32:12.807Z,42.00
2022-08-05T07:34:42.469Z,39.82
2022-08-05T07:37:11.739Z,39.05
2022-08-05T07:40:04.441Z,40.81
2022-08-05T07:42:33.806Z,39.85
2022-08-05T07:45:03.579Z,40.09
2022-08-05T07:47:42.249Z,38.69
2022-08-05T07:50:10.062Z,37.24
2022-08-05T07:52:40.847Z,35.13
2022-08-05T07:55:15.870Z,35.45
2022-08-05T07:58:02.358Z,37.57
2022-08-05T08:00:30.140Z,39.16
2022-08-05T08:03:15.307Z,41.31
2022-08-05T08:05:49.828Z,41.08
2022-08-05T08:08:17.064Z,39.64
2022-08-05T08:10:48.915Z,39.36
2022-08-05T08:13:22.133Z,40.19
2022-08-05T08:16:35.144Z,41.75
2022-08-05T08:18:42.439Z,39.11
2022-08-05T08:21:17.735Z,38.01
2022-08-05T08:24:03.164Z,36.97
2022-08-05T08:26:31.227Z,34.44
2022-08-05T08:29:02.413Z,33.06
2022-08-05T08:31:47.596Z,33.89
2022-08-05T08:34:15.218Z,34.96
2022-08-05T08:36:48.827Z,36.99
2022-08-05T08:39:19.854Z,33.67
2022-08-05T08:41:51.180Z,35.37
2022-08-05T08:45:19.917Z,32.02
2022-08-05T08:47:21.780Z,30.91
2022-08-05T08:50:05.774Z,30.56
2022-08-05T08:53:01.677Z,30.38
2022-08-05T08:56:04.280Z,30.07
2022-08-05T08:58:37.104Z,30.50
2022-08-05T09:01:15.981Z,29.31
2022-08-05T09:03:45.760Z,28.72
2022-08-05T09:06:15.812Z,28.46
2022-08-05T09:08:45.303Z,29.84
2022-08-05T09:11:13.980Z,27.88
2022-08-05T09:14:10.133Z,27.36
2022-08-05T09:16:28.631Z,30.06
2022-08-05T09:18:55.873Z,31.08
2022-08-05T09:22:17.946Z,29.46
2022-08-05T09:24:15.419Z,28.78
2022-08-05T09:26:43.745Z,27.79
2022-08-05T09:29:11.102Z,31.20
2022-08-05T09:32:41.455Z,30.32
2022-08-05T09:34:53.625Z,28.88
2022-08-05T09:38:17.763Z,27.61
2022-08-05T09:40:10.129Z,26.78
2022-08-05T09:42:41.020Z,26.58
2022-08-05T09:46:05.302Z,26.76
2022-08-05T09:47:56.761Z,26.66
2022-08-05T09:50:38.585Z,27.27
2022-08-05T09:53:23.176Z,25.62
2022-08-05T09:56:04.786Z,24.99
2022-08-05T09:58:39.190Z,25.80
2022-08-05T10:01:14.833Z,25.29
2022-08-05T10:04:00.633Z,25.56
2022-08-05T10:06:28.038Z,25.17
2022-08-05T10:08:55.749Z,24.43
2022-08-05T10:11:23.306Z,23.94
2022-08-05T10:13:49.862Z,23.01
2022-08-05T10:16:28.874Z,23.05
2022-08-05T10:18:56.800Z,24.47
2022-08-05T10:21:24.131Z,24.83
2022-08-05T10:23:59.220Z,24.39
2022-08-05T10:26:31.684Z,24.86
2022-08-05T10:29:00.694Z,26.68
2022-08-05T10:33:02.202Z,27.17
2022-08-05T10:34:14.398Z,23.77
2022-08-05T10:36:44.672Z,22.73
2022-08-05T10:39:24.847Z,22.35
2022-08-05T10:42:33.349Z,21.74
2022-08-05T10:45:01.437Z,20.42
2022-08-05T10:47:37.149Z,23.64
2022-08-05T10:50:31.690Z,27.10
2022-08-05T10:53:01.767Z,25.65
2022-08-05T10:55:38.543Z,24.10
2022-08-05T10:58:17.992Z,25.69
2022-08-05T11:00:48.556Z,24.21
2022-08-05T11:03:24.858Z,22.56
2022-08-05T11:06:15.651Z,21.79
2022-08-05T11:09:31.950Z,22.79
2022-08-05T11:12:26.929Z,23.45
2022-08-05T11:16:00.825Z,26.06
2022-08-05T11:18:34.017Z,27.51
2022-08-05T11:21:02.629Z,29.15
2022-08-05T11:23:33.615Z,30.14
2022-08-05T11:26:17.043Z,30.07
2022-08-05T11:28:56.099Z,29.43
2022-08-05T11:31:58.705Z,26.44
2022-08-05T11:34:37.027Z,25.78
2022-08-05T11:38:14.307Z,23.64
2022-08-05T11:40:00.535Z,21.94
2022-08-05T11:42:33.092Z,23.03
2022-08-05T11:45:27.055Z,23.37
2022-08-05T11:47:55.066Z,20.85
2022-08-05T11:50:22.927Z,20.18
2022-08-05T11:52:52.073Z,22.25
2022-08-05T11:55:20.951Z,25.68
2022-08-05T11:58:10.087Z,25.58
2022-08-05T12:00:38.362Z,22.63
2022-08-05T12:03:29.105Z,22.25
2022-08-05T12:06:05.885Z,21.16
2022-08-05T12:08:50.009Z,21.73
2022-08-05T12:11:23.311Z,22.06
2022-08-05T12:14:04.024Z,20.87
2022-08-05T12:16:38.571Z,27.13
2022-08-05T12:19:08.290Z,25.47
2022-08-05T12:21:39.231Z,22.22
2022-08-05T12:24:14.208Z,22.09
2022-08-05T12:26:47.310Z,22.86
2022-08-05T12:29:22.742Z,24.71
2022-08-05T12:32:02.018Z,27.22
2022-08-05T12:34:37.260Z,29.32
2022-08-05T12:37:16.956Z,29.73
2022-08-05T12:39:44.932Z,27.68
2022-08-05T12:42:20.375Z,25.94
2022-08-05T12:44:47.748Z,26.62
2022-08-05T12:47:26.561Z,25.98
2022-08-05T12:50:04.071Z,21.51
2022-08-05T12:52:39.468Z,21.03
2022-08-05T12:55:22.036Z,19.58
2022-08-05T12:58:52.741Z,19.65
2022-08-05T13:02:01.239Z,20.44
2022-08-05T13:03:32.327Z,21.98
2022-08-05T13:05:59.035Z,22.42
2022-08-05T13:08:32.217Z,22.49
2022-08-05T13:11:00.675Z,23.00
2022-08-05T13:14:06.217Z,24.17
2022-08-05T13:16:16.756Z,23.43
2022-08-05T13:18:55.271Z,21.69
2022-08-05T13:21:28.474Z,20.80
2022-08-05T13:24:06.219Z,21.34
2022-08-05T13:26:35.711Z,21.08
2022-08-05T13:29:02.081Z,21.50
2022-08-05T13:32:03.780Z,22.16
2022-08-05T13:34:25.095Z,23.96
2022-08-05T13:36:55.216Z,22.54
2022-08-05T13:40:12.758Z,22.31
2022-08-05T13:42:14.658Z,23.51
2022-08-05T13:44:45.686Z,25.41
2022-08-05T13:47:34.557Z,25.02
2022-08-05T13:50:01.280Z,23.17
2022-08-05T13:52:31.624Z,22.90
2022-08-05T13:55:07.346Z,25.37
2022-08-05T13:57:48.571Z,25.61
2022-08-05T14:00:17.556Z,29.53
2022-08-05T14:02:43.961Z,26.60
2022-08-05T14:05:11.996Z,25.69
2022-08-05T14:07:59.994Z,25.82
2022-08-05T14:10:31.290Z,25.85
2022-08-05T14:12:59.560Z,26.28
2022-08-05T14:16:07.117Z,26.05
2022-08-05T14:18:18.355Z,25.44
2022-08-05T14:20:54.414Z,24.75
2022-08-05T14:23:25.456Z,23.22
2022-08-05T14:25:54.534Z,24.52
2022-08-05T14:28:27.103Z,26.02
2022-08-05T14:30:54.988Z,28.00
2022-08-05T14:33:22.612Z,25.71
2022-08-05T14:35:52.067Z,25.17
2022-08-05T14:38:33.275Z,23.96
2022-08-05T14:41:07.520Z,23.96
2022-08-05T14:44:01.594Z,24.39
2022-08-05T14:46:28.261Z,24.55
2022-08-05T14:48:55.849Z,26.76
2022-08-05T14:51:23.916Z,25.88
2022-08-05T14:54:27.464Z,25.88
2022-08-05T14:56:38.169Z,26.20
2022-08-05T14:59:11.360Z,26.83
2022-08-05T15:01:48.072Z,26.75
2022-08-05T15:04:15.899Z,28.25
2022-08-05T15:06:49.373Z,28.10
2022-08-05T15:09:16.299Z,28.91
2022-08-05T15:12:03.947Z,29.12
2022-08-05T15:14:34.719Z,27.64
2022-08-05T15:17:09.668Z,29.19
2022-08-05T15:19:40.905Z,28.65
2022-08-05T15:22:16.569Z,28.48
2022-08-05T15:24:44.679Z,27.92
2022-08-05T15:27:11.927Z,27.62
2022-08-05T15:29:42.200Z,27.41
2022-08-05T15:32:08.687Z,26.57
2022-08-05T15:34:35.413Z,28.01
2022-08-05T15:37:06.323Z,27.71
2022-08-05T15:40:58.700Z,26.50
2022-08-05T15:42:54.365Z,27.07
2022-08-05T15:45:07.793Z,27.27
2022-08-05T15:47:37.100Z,27.58
2022-08-05T15:50:07.254Z,27.20
2022-08-05T15:52:53.227Z,27.26
2022-08-05T15:55:24.603Z,28.88
2022-08-05T15:57:51.740Z,31.37
2022-08-05T16:00:26.159Z,30.28
2022-08-05T16:03:06.045Z,30.88
2022-08-05T16:05:32.899Z,30.41
2022-08-05T16:07:59.267Z,30.38
2022-08-05T16:10:26.860Z,30.08
2022-08-05T16:12:55.949Z,30.25
2022-08-05T16:15:23.014Z,30.56
2022-08-05T16:17:57.754Z,32.91
2022-08-05T16:20:25.831Z,32.66
2022-08-05T16:22:54.406Z,31.67
2022-08-05T16:25:20.813Z,31.02
2022-08-05T16:28:05.371Z,32.18
2022-08-05T16:30:32.871Z,31.98
2022-08-05T16:32:59.841Z,31.88
2022-08-05T16:35:28.401Z,31.86
2022-08-05T16:38:16.768Z,31.90
2022-08-05T16:40:47.740Z,32.30
2022-08-05T16:43:19.176Z,31.75
2022-08-05T16:46:07.051Z,32.61
2022-08-05T16:48:35.339Z,32.61
2022-08-05T16:51:03.841Z,32.81
2022-08-05T16:54:02.742Z,33.42
2022-08-05T16:56:23.396Z,33.58
2022-08-05T16:58:49.902Z,33.47
2022-08-05T17:01:16.452Z,33.46
2022-08-05T17:03:45.942Z,33.39
2022-08-05T17:06:12.915Z,33.49
2022-08-05T17:08:52.300Z,33.26
2022-08-05T17:11:20.850Z,33.52
2022-08-05T17:13:50.851Z,33.58
2022-08-05T17:16:33.054Z,34.29
2022-08-05T17:19:00.464Z,34.58
2022-08-05T17:21:36.306Z,34.58
2022-08-05T17:24:19.410Z,35.10
2022-08-05T17:26:56.553Z,36.05
2022-08-05T17:29:33.059Z,36.70
2022-08-05T17:32:06.623Z,36.30
2022-08-05T17:34:35.054Z,36.69
2022-08-05T17:37:01.942Z,36.97
2022-08-05T17:39:34.382Z,37.18
2022-08-05T17:42:18.236Z,37.44
2022-08-05T17:44:50.375Z,37.43
2022-08-05T17:47:22.404Z,38.25
2022-08-05T17:49:59.844Z,38.58
2022-08-05T17:52:31.836Z,38.77
2022-08-05T17:54:58.656Z,38.93
2022-08-05T17:57:25.036Z,39.23
2022-08-05T18:00:03.822Z,40.20
2022-08-05T18:02:34.238Z,40.83
2022-08-05T18:05:06.198Z,41.35
2022-08-05T18:07:41.288Z,42.21
2022-08-05T18:10:10.363Z,42.63
2022-08-05T18:12:37.973Z,42.68
2022-08-05T18:15:05.105Z,43.57
2022-08-05T18:17:59.194Z,43.91
2022-08-05T18:20:19.561Z,43.74
2022-08-05T18:22:57.506Z,44.51
2022-08-05T18:25:25.195Z,44.55
2022-08-05T18:27:59.017Z,44.93
2022-08-05T18:30:29.744Z,45.12
2022-08-05T18:33:00.388Z,45.50
2022-08-05T18:36:01.155Z,45.59
2022-08-05T18:38:19.362Z,45.78
2022-08-05T18:41:55.402Z,45.67
2022-08-05T18:43:42.700Z,45.89
2022-08-05T18:46:15.129Z,46.26
2022-08-05T18:48:42.130Z,46.46
2022-08-05T18:52:04.882Z,46.61
2022-08-05T18:54:16.444Z,47.24
2022-08-05T18:56:50.978Z,47.06
2022-08-05T18:59:43.000Z,46.75
2022-08-05T19:02:26.859Z,47.23
2022-08-05T19:05:01.408Z,47.35
2022-08-05T19:07:45.112Z,47.83
2022-08-05T19:10:13.263Z,48.14
2022-08-05T19:12:40.142Z,48.29
2022-08-05T19:15:25.054Z,48.39
2022-08-05T19:18:08.262Z,48.12
2022-08-05T19:20:36.836Z,48.56
2022-08-05T19:23:03.345Z,49.08
2022-08-05T19:25:38.170Z,49.39
2022-08-05T19:28:08.763Z,49.49
2022-08-05T19:30:35.503Z,49.33
2022-08-05T19:33:04.356Z,49.53
2022-08-05T19:35:57.472Z,49.72
2022-08-05T19:38:26.490Z,50.08
2022-08-05T19:40:53.818Z,50.09
2022-08-05T19:44:04.228Z,50.14
2022-08-05T19:46:06.801Z,50.06
2022-08-05T19:48:53.146Z,50.72
2022-08-05T19:52:04.524Z,51.02
2022-08-05T19:54:26.813Z,51.18
2022-08-05T19:56:55.391Z,50.96
2022-08-05T19:59:56.657Z,51.57
2022-08-05T20:02:08.804Z,51.85
2022-08-05T20:04:37.364Z,52.03
2022-08-05T20:07:03.889Z,52.28
2022-08-05T20:09:53.815Z,52.57
2022-08-05T20:12:22.702Z,52.72
2022-08-05T20:14:52.469Z,52.50
2022-08-05T20:17:23.458Z,53.26
2022-08-05T20:19:56.780Z,52.70
2022-08-05T20:22:25.031Z,53.76
2022-08-05T20:24:53.789Z,53.91
2022-08-05T20:27:21.012Z,54.66
2022-08-05T20:29:57.953Z,55.17
2022-08-05T20:32:27.404Z,55.83
2022-08-05T20:34:54.527Z,57.08
2022-08-05T20:38:04.999Z,59.65
2022-08-05T20:40:08.368Z,60.67
2022-08-05T20:42:34.773Z,62.29
2022-08-05T20:45:02.032Z,62.82
2022-08-05T20:47:31.832Z,63.23
2022-08-05T20:49:58.853Z,63.86
2022-08-05T20:52:25.662Z,64.06
2022-08-05T20:54:59.357Z,64.05
2022-08-05T20:57:42.213Z,65.01
2022-08-05T21:00:41.248Z,66.16
2022-08-05T21:03:04.479Z,68.31
2022-08-05T21:05:48.229Z,67.96
2022-08-05T21:08:28.226Z,69.57
2022-08-05T21:11:09.976Z,70.22
2022-08-05T21:13:55.682Z,69.49
2022-08-05T21:16:29.702Z,70.46
2022-08-05T21:19:01.440Z,70.42
2022-08-05T21:21:39.487Z,70.89
2022-08-05T21:24:12.851Z,70.56
2022-08-05T21:26:40.149Z,72.10
2022-08-05T21:29:08.071Z,71.41
2022-08-05T21:31:41.115Z,71.89
2022-08-05T21:34:08.547Z,71.77
2022-08-05T21:36:37.425Z,72.81
2022-08-05T21:39:03.891Z,73.71
2022-08-05T21:41:34.340Z,74.08
2022-08-05T21:44:04.162Z,74.57
2022-08-05T21:46:34.483Z,75.60
2022-08-05T21:49:02.385Z,76.08
2022-08-05T21:52:22.155Z,76.52
2022-08-05T21:54:27.934Z,77.19
2022-08-05T21:57:29.190Z,76.13
2022-08-05T22:00:02.087Z,79.04
2022-08-05T22:02:30.664Z,78.21
2022-08-05T22:04:58.798Z,78.95
2022-08-05T22:07:40.218Z,79.38
2022-08-05T22:10:12.428Z,79.22
2022-08-05T22:12:40.196Z,78.38
2022-08-05T22:15:16.905Z,77.49
2022-08-05T22:18:03.574Z,79.44
2022-08-05T22:20:30.403Z,80.04
2022-08-05T22:23:21.498Z,79.48
2022-08-05T22:26:09.865Z,80.00
2022-08-05T22:28:37.327Z,80.48
2022-08-05T22:31:05.518Z,80.53
2022-08-05T22:33:57.107Z,81.34
2022-08-05T22:36:19.312Z,83.20
2022-08-05T22:38:50.951Z,84.06
2022-08-05T22:42:05.123Z,83.71
2022-08-05T22:44:08.023Z,84.33
2022-08-05T22:46:40.047Z,84.37
2022-08-05T22:49:23.235Z,84.59
2022-08-05T22:52:06.643Z,84.02
2022-08-05T22:54:35.531Z,84.67
2022-08-05T22:57:03.540Z,84.54
2022-08-05T22:59:45.914Z,83.53
2022-08-05T23:02:16.942Z,83.07
2022-08-05T23:04:51.206Z,83.29
2022-08-05T23:07:18.313Z,83.15
2022-08-05T23:09:57.531Z,83.59
2022-08-05T23:12:32.825Z,82.14
2022-08-05T23:15:03.162Z,82.77
2022-08-05T23:17:34.542Z,81.85
2022-08-05T23:20:10.414Z,82.00
2022-08-05T23:22:44.034Z,81.46
2022-08-05T23:25:17.631Z,81.53
2022-08-05T23:28:01.445Z,82.04
2022-08-05T23:30:29.096Z,83.19
2022-08-05T23:32:57.737Z,83.25
2022-08-05T23:35:28.596Z,82.68
2022-08-05T23:38:00.991Z,82.69
2022-08-05T23:40:27.879Z,82.71
2022-08-05T23:42:54.288Z,83.15
2022-08-05T23:45:20.853Z,82.49
2022-08-05T23:47:53.912Z,82.60
2022-08-05T23:50:26.525Z,83.26
2022-08-05T23:52:54.992Z,83.03
2022-08-05T23:55:22.335Z,83.93
2022-08-05T23:57:52.853Z,83.87
